Time;durP1;ratioP1;P1;durP2;ratioP2;P2;SDS_P1;SDS_P2;PMS_P1;PMS_P2;Temp;Humidity;BMP_temperature;BMP_pressure;BME280_temperature;BME280_humidity;BME280_pressure;Samples;Min_cycle;Max_cycle;Signal;HPM_P1;HPM_P2
2024/03/01 00:02:25;;;;;;;3.90;1.77;;;;;;;18.53;46.26;100063.13;5029225;28;20037;-71
2024/03/01 00:04:50;;;;;;;3.05;1.55;;;;;;;18.56;46.58;100068.09;5037898;28;20786;-71
2024/03/01 00:07:15;;;;;;;3.53;1.77;;;;;;;18.45;46.41;100054.13;5021272;28;20025;-71
2024/03/01 00:09:41;;;;;;;3.17;1.63;;;;;;;18.41;46.54;100044.00;5025647;28;20025;-70
2024/03/01 00:12:06;;;;;;;2.97;1.60;;;;;;;18.42;46.40;100050.94;5041289;28;20060;-71
2024/03/01 00:14:32;;;;;;;3.00;1.48;;;;;;;18.43;46.29;100052.59;5039676;28;20475;-70
2024/03/01 00:16:57;;;;;;;3.58;1.60;;;;;;;18.55;46.39;100077.84;5039855;28;20053;-71
2024/03/01 00:19:22;;;;;;;3.67;1.75;;;;;;;18.54;46.51;100076.16;5025246;28;20036;-70
2024/03/01 00:21:48;;;;;;;3.80;1.67;;;;;;;18.43;46.23;100063.97;5035782;28;20021;-71
2024/03/01 00:24:13;;;;;;;3.40;1.77;;;;;;;18.41;46.49;100058.03;5027229;28;20113;-71
2024/03/01 00:26:46;;;;;;;3.67;1.80;;;;;;;18.40;46.48;100056.34;5019404;28;20041;-70
2024/03/01 00:29:11;;;;;;;3.63;1.77;;;;;;;18.37;46.56;100056.66;5031201;28;20032;-70
2024/03/01 00:31:37;;;;;;;3.85;1.83;;;;;;;18.40;46.22;100052.91;5040086;28;20102;-70
2024/03/01 00:34:02;;;;;;;3.58;1.60;;;;;;;18.39;46.56;100048.59;5039086;28;20107;-70
2024/03/01 00:36:28;;;;;;;4.10;1.90;;;;;;;18.46;46.48;100063.69;5039355;28;20025;-70
2024/03/01 00:38:54;;;;;;;4.55;1.63;;;;;;;18.44;46.45;100055.09;5025374;28;20029;-70
2024/03/01 00:41:19;;;;;;;3.63;1.60;;;;;;;18.36;46.31;100038.31;5019099;28;20948;-70
2024/03/01 00:43:44;;;;;;;3.17;1.70;;;;;;;18.41;46.20;100052.75;5019249;28;20112;-71
2024/03/01 00:46:09;;;;;;;3.65;1.77;;;;;;;18.44;46.33;100049.81;5021028;28;20040;-70
2024/03/01 00:48:35;;;;;;;3.00;1.52;;;;;;;18.34;46.35;100035.00;5020437;28;20045;-70
2024/03/01 00:51:01;;;;;;;4.22;1.90;;;;;;;18.31;46.26;100022.97;5020337;28;20345;-70
2024/03/01 00:53:26;;;;;;;3.28;1.50;;;;;;;18.38;46.27;100033.75;5029576;28;20932;-70
2024/03/01 00:55:51;;;;;;;3.40;1.73;;;;;;;18.20;46.08;100009.94;5024596;28;20039;-69
2024/03/01 00:58:16;;;;;;;3.15;1.50;;;;;;;18.28;46.05;100026.72;5038993;28;20327;-68
2024/03/01 01:00:42;;;;;;;3.38;1.70;;;;;;;18.27;46.26;100029.50;5032257;28;20078;-69
2024/03/01 01:03:07;;;;;;;3.50;1.50;;;;;;;18.36;46.04;100039.19;5021466;28;20056;-69
2024/03/01 01:05:33;;;;;;;3.17;1.40;;;;;;;18.32;46.16;100032.50;5029001;28;20075;-69
2024/03/01 01:07:58;;;;;;;3.05;1.60;;;;;;;18.24;46.03;100019.22;5021372;28;20037;-69
2024/03/01 01:10:23;;;;;;;3.03;1.40;;;;;;;18.23;46.39;100012.28;5027328;28;20144;-69
2024/03/01 01:12:49;;;;;;;3.35;1.67;;;;;;;18.21;46.12;100015.06;5027639;28;20095;-69
2024/03/01 01:15:14;;;;;;;3.70;1.67;;;;;;;18.17;46.07;100005.78;5022530;28;20033;-69
2024/03/01 01:17:40;;;;;;;3.17;1.60;;;;;;;18.19;46.31;100003.84;5019593;28;20056;-69
2024/03/01 01:20:05;;;;;;;3.60;1.60;;;;;;;18.31;46.24;100028.25;5024163;28;20056;-70
2024/03/01 01:22:31;;;;;;;3.05;1.45;;;;;;;18.17;46.18;100000.53;5026692;28;20392;-69
2024/03/01 01:24:56;;;;;;;3.47;1.67;;;;;;;18.22;46.02;100005.38;5034066;28;20035;-70
2024/03/01 01:27:22;;;;;;;2.78;1.42;;;;;;;18.30;46.13;100023.94;5030339;28;20036;-69
2024/03/01 01:29:47;;;;;;;3.97;1.50;;;;;;;18.21;46.31;100001.06;5037452;28;20033;-70
2024/03/01 01:32:12;;;;;;;3.13;1.42;;;;;;;18.26;46.35;100007.56;5029747;28;20032;-69
2024/03/01 01:34:38;;;;;;;2.78;1.20;;;;;;;18.17;46.01;99995.25;5030009;28;20068;-70
2024/03/01 01:37:03;;;;;;;1.92;1.15;;;;;;;18.25;46.20;100005.91;5030474;28;20398;-69
2024/03/01 01:39:29;;;;;;;2.55;1.40;;;;;;;18.27;45.94;100016.31;5029848;28;20065;-69
2024/03/01 01:41:55;;;;;;;3.38;1.42;;;;;;;18.26;46.03;100006.72;5031013;28;20079;-69
2024/03/01 01:44:20;;;;;;;3.97;1.73;;;;;;;18.23;46.23;100007.00;5028647;28;20037;-69
2024/03/01 01:46:49;;;;;;;3.17;1.40;;;;;;;18.16;45.73;99996.22;5036336;28;20045;-69
2024/03/01 01:49:26;;;;;;;3.45;1.70;;;;;;;18.21;46.04;99993.16;5036575;28;20120;-69
2024/03/01 01:51:52;;;;;;;3.08;1.42;;;;;;;18.23;46.03;99993.81;5030342;28;20045;-70
2024/03/01 01:54:17;;;;;;;3.72;1.60;;;;;;;18.08;45.98;99975.84;5026756;28;20029;-69
2024/03/01 01:56:44;;;;;;;3.58;1.67;;;;;;;18.21;45.78;99991.31;5030927;28;20044;-69
2024/03/01 01:59:13;;;;;;;5.03;1.70;;;;;;;18.04;45.91;99960.44;5019408;28;20045;-69
2024/03/01 02:01:39;;;;;;;3.50;1.42;;;;;;;18.19;45.84;99984.56;5027199;28;20048;-70
2024/03/01 02:04:04;;;;;;;2.67;1.40;;;;;;;18.21;45.84;99988.69;5031371;28;20037;-69
2024/03/01 02:06:30;;;;;;;2.35;1.20;;;;;;;18.09;46.06;99964.31;5033482;28;20041;-70
2024/03/01 02:08:55;;;;;;;4.10;1.70;;;;;;;18.16;46.06;99983.03;5025361;28;20383;-69
2024/03/01 02:11:21;;;;;;;2.83;1.30;;;;;;;18.09;46.00;99966.97;5019088;28;20026;-69
2024/03/01 02:13:46;;;;;;;3.35;1.40;;;;;;;18.05;45.69;99959.50;5031148;28;20099;-69
2024/03/01 02:16:12;;;;;;;3.67;1.30;;;;;;;18.06;45.86;99953.25;5029028;28;20021;-69
2024/03/01 02:18:37;;;;;;;3.13;1.30;;;;;;;18.16;46.02;99961.94;5030830;28;20365;-69
2024/03/01 02:21:07;;;;;;;4.55;1.45;;;;;;;18.18;45.70;99967.88;5031801;28;20033;-70
2024/03/01 02:23:32;;;;;;;3.15;1.60;;;;;;;18.06;45.95;99945.34;5027589;28;20039;-70
2024/03/01 02:25:58;;;;;;;2.95;1.40;;;;;;;18.16;45.84;99963.75;5037101;28;20812;-70
2024/03/01 02:28:23;;;;;;;2.85;1.20;;;;;;;18.02;45.73;99939.50;5033448;28;20144;-69
2024/03/01 02:30:51;;;;;;;2.83;1.45;;;;;;;18.10;45.91;99941.41;5030315;28;20847;-69
2024/03/01 02:33:18;;;;;;;2.90;1.48;;;;;;;18.14;46.01;99945.44;5025910;28;20475;-69
2024/03/01 02:35:43;;;;;;;2.75;1.30;;;;;;;18.08;45.72;99936.28;5026817;28;20140;-70
2024/03/01 02:38:08;;;;;;;2.53;1.33;;;;;;;18.00;45.79;99916.91;5027645;28;20051;-69
2024/03/01 02:40:33;;;;;;;3.15;1.50;;;;;;;18.04;45.88;99931.44;5026735;28;20372;-70
2024/03/01 02:42:59;;;;;;;3.10;1.27;;;;;;;17.99;45.84;99910.81;5027692;28;20033;-70
2024/03/01 02:45:25;;;;;;;2.65;1.35;;;;;;;18.00;46.00;99914.28;5023814;28;20034;-69
2024/03/01 02:47:50;;;;;;;2.80;1.30;;;;;;;18.12;46.02;99935.03;5021243;28;20049;-70
2024/03/01 02:50:15;;;;;;;3.38;1.30;;;;;;;18.03;45.32;99914.81;5034762;28;20107;-69
2024/03/01 02:52:40;;;;;;;3.22;1.40;;;;;;;18.07;45.62;99923.25;5042057;28;20040;-69
2024/03/01 02:55:06;;;;;;;3.05;1.50;;;;;;;17.97;45.67;99907.47;5041640;28;20033;-70
2024/03/01 02:57:32;;;;;;;2.17;1.00;;;;;;;17.99;45.81;99912.63;5037394;28;20044;-70
2024/03/01 02:59:57;;;;;;;3.15;1.40;;;;;;;18.00;45.73;99909.81;5027217;28;20048;-69
2024/03/01 03:02:22;;;;;;;3.33;1.40;;;;;;;18.00;45.74;99914.28;5022845;28;20037;-70
2024/03/01 03:04:48;;;;;;;2.40;0.98;;;;;;;17.88;45.84;99901.28;5027578;28;20495;-69
2024/03/01 03:07:13;;;;;;;1.77;1.08;;;;;;;18.07;45.91;99937.28;5037717;28;20138;-69
2024/03/01 03:09:42;;;;;;;2.58;1.20;;;;;;;17.97;45.80;99917.22;5040159;28;20063;-69
2024/03/01 03:12:08;;;;;;;2.55;1.20;;;;;;;17.98;46.09;99918.88;5031588;28;20039;-69
2024/03/01 03:14:33;;;;;;;2.70;1.17;;;;;;;17.93;46.05;99911.41;5024098;28;20045;-70
2024/03/01 03:16:59;;;;;;;2.22;1.20;;;;;;;18.01;45.80;99937.00;5033304;28;20033;-70
2024/03/01 03:19:24;;;;;;;2.60;1.30;;;;;;;17.94;45.99;99924.44;5026109;28;20546;-67
2024/03/01 03:21:49;;;;;;;2.60;1.20;;;;;;;17.98;45.92;99963.69;5041703;28;20149;-69
2024/03/01 03:24:15;;;;;;;3.03;1.20;;;;;;;17.86;46.08;99968.25;5041814;28;20040;-69
2024/03/01 03:26:40;;;;;;;2.15;1.10;;;;;;;17.93;46.00;99991.31;5028491;28;20029;-69
2024/03/01 03:29:05;;;;;;;3.03;1.30;;;;;;;18.06;46.14;100027.06;5039370;28;20166;-69
2024/03/01 03:31:31;;;;;;;2.50;1.10;;;;;;;18.04;46.10;100029.00;5037343;28;20275;-69
2024/03/01 03:33:57;;;;;;;2.42;1.00;;;;;;;18.00;46.05;100039.00;5023286;28;20033;-70
2024/03/01 03:36:22;;;;;;;1.95;0.88;;;;;;;17.89;46.04;100021.56;5021821;28;20120;-69
2024/03/01 03:38:48;;;;;;;2.45;1.10;;;;;;;17.90;45.98;100030.31;5021985;28;20619;-69
2024/03/01 03:41:13;;;;;;;1.85;0.90;;;;;;;17.94;45.81;100039.59;5021336;28;20029;-70
2024/03/01 03:43:38;;;;;;;2.05;0.98;;;;;;;17.94;45.57;100053.63;5021183;28;20069;-71
2024/03/01 03:46:03;;;;;;;2.30;1.00;;;;;;;18.00;45.77;100059.28;5023031;28;20033;-70
2024/03/01 03:48:29;;;;;;;1.85;0.80;;;;;;;18.02;45.58;100075.78;5026340;28;20410;-70
2024/03/01 03:50:56;;;;;;;1.92;1.00;;;;;;;18.03;45.53;100077.47;5028163;28;20034;-71
2024/03/01 03:53:21;;;;;;;2.25;0.98;;;;;;;17.90;45.66;100065.41;5023396;28;20032;-70
2024/03/01 03:55:46;;;;;;;2.25;0.77;;;;;;;17.99;45.48;100082.19;5040346;28;20037;-70
2024/03/01 03:58:11;;;;;;;1.80;0.90;;;;;;;17.98;45.39;100083.16;5023901;28;20506;-70
2024/03/01 04:00:37;;;;;;;1.35;0.80;;;;;;;17.95;45.21;100076.34;5037373;28;20041;-71
2024/03/01 04:03:03;;;;;;;1.80;0.80;;;;;;;17.98;45.37;100085.78;5025883;28;20916;-71
2024/03/01 04:05:29;;;;;;;1.95;0.73;;;;;;;17.88;45.39;100077.06;5034965;28;20150;-70
2024/03/01 04:07:55;;;;;;;1.00;0.70;;;;;;;17.94;45.35;100084.41;5038641;28;20028;-70
2024/03/01 04:10:20;;;;;;;1.33;0.70;;;;;;;17.94;45.11;100085.25;5020769;28;20403;-70
2024/03/01 04:12:46;;;;;;;1.73;0.80;;;;;;;17.95;45.36;100091.34;5028969;28;20471;-70
2024/03/01 04:15:12;;;;;;;1.58;0.70;;;;;;;17.90;45.10;100090.94;5038275;28;20086;-70
2024/03/01 04:17:37;;;;;;;1.00;0.60;;;;;;;17.90;45.18;100091.75;5027445;28;20033;-70
2024/03/01 04:20:07;;;;;;;1.58;0.80;;;;;;;17.88;44.90;100092.88;5039952;28;20048;-70
2024/03/01 04:22:33;;;;;;;1.65;0.65;;;;;;;17.89;44.71;100094.53;5034023;28;20055;-71
2024/03/01 04:24:58;;;;;;;1.85;0.80;;;;;;;17.90;44.89;100096.22;5034047;28;20415;-71
2024/03/01 04:27:24;;;;;;;1.35;0.70;;;;;;;17.73;44.85;100081.91;5021562;28;20120;-70
2024/03/01 04:29:49;;;;;;;1.27;0.70;;;;;;;17.94;44.83;100116.88;5024928;28;20025;-70
2024/03/01 04:32:17;;;;;;;1.30;0.60;;;;;;;17.71;44.86;100081.22;5020485;28;20471;-71
2024/03/01 04:34:43;;;;;;;1.23;0.70;;;;;;;17.80;44.99;100097.97;5022602;28;20032;-71
2024/03/01 04:37:08;;;;;;;1.15;0.60;;;;;;;17.71;44.79;100105.75;5039074;28;20029;-70
2024/03/01 04:39:34;;;;;;;1.05;0.52;;;;;;;17.90;44.72;100135.75;5040160;28;20036;-70
2024/03/01 04:41:59;;;;;;;1.20;0.70;;;;;;;17.77;44.85;100107.84;5036284;28;21101;-70
2024/03/01 04:44:25;;;;;;;1.85;0.73;;;;;;;17.78;44.79;100119.22;5021826;28;20255;-70
2024/03/01 04:46:50;;;;;;;0.95;0.60;;;;;;;17.84;44.72;100134.47;5025287;28;20380;-71
2024/03/01 04:49:15;;;;;;;1.27;0.70;;;;;;;17.87;45.00;100151.81;5031315;28;20103;-70
2024/03/01 04:51:41;;;;;;;1.33;0.60;;;;;;;17.79;45.04;100143.78;5030572;28;20040;-71
2024/03/01 04:54:07;;;;;;;1.10;0.60;;;;;;;17.86;44.75;100152.78;5030954;28;20045;-71
2024/03/01 04:56:33;;;;;;;1.27;0.57;;;;;;;17.85;44.78;100161.66;5027971;28;20030;-70
2024/03/01 04:58:58;;;;;;;1.50;0.85;;;;;;;17.84;44.66;100162.63;5029400;28;20487;-70
2024/03/01 05:01:23;;;;;;;2.00;0.70;;;;;;;17.72;44.90;100144.34;5029047;28;20033;-71
2024/03/01 05:03:49;;;;;;;1.33;0.52;;;;;;;17.83;44.82;100164.44;5029388;28;20028;-70
2024/03/01 05:06:15;;;;;;;1.02;0.63;;;;;;;17.71;44.91;100149.75;5029712;28;20526;-71
2024/03/01 05:08:41;;;;;;;1.80;0.77;;;;;;;17.71;44.75;100144.47;5029533;28;20029;-70
2024/03/01 05:11:06;;;;;;;0.90;0.50;;;;;;;17.73;44.84;100153.06;5019871;28;20029;-70
2024/03/01 05:13:31;;;;;;;1.60;0.60;;;;;;;17.82;45.01;100175.97;5024150;28;20039;-70
2024/03/01 05:15:57;;;;;;;0.77;0.50;;;;;;;17.72;44.82;100164.56;5022396;28;20087;-70
2024/03/01 05:18:22;;;;;;;1.40;0.60;;;;;;;17.69;44.71;100151.66;5027331;28;20128;-71
2024/03/01 05:20:47;;;;;;;1.33;0.60;;;;;;;17.71;44.89;100161.09;5024907;28;20432;-70
2024/03/01 05:23:13;;;;;;;1.13;0.70;;;;;;;17.82;44.84;100177.78;5023992;28;20033;-70
2024/03/01 05:25:38;;;;;;;1.40;0.60;;;;;;;17.63;44.61;100158.34;5032219;28;20477;-70
2024/03/01 05:28:04;;;;;;;0.93;0.50;;;;;;;17.73;44.63;100174.16;5036265;28;20604;-70
2024/03/01 05:30:31;;;;;;;1.27;0.60;;;;;;;17.75;44.62;100183.59;5027901;28;20488;-70
2024/03/01 05:32:57;;;;;;;1.15;0.70;;;;;;;17.68;44.68;100169.28;5026102;28;20037;-70
2024/03/01 05:35:22;;;;;;;1.10;0.60;;;;;;;17.79;44.50;100193.84;5030376;28;20056;-70
2024/03/01 05:37:47;;;;;;;0.95;0.57;;;;;;;17.79;44.57;100191.22;5027864;28;20475;-70
2024/03/01 05:40:14;;;;;;;1.05;0.50;;;;;;;17.69;44.48;100186.78;5025618;28;20028;-70
2024/03/01 05:42:44;;;;;;;1.23;0.50;;;;;;;17.66;44.54;100179.13;5033990;28;20029;-71
2024/03/01 05:45:11;;;;;;;1.67;0.60;;;;;;;17.80;44.27;100201.63;5029513;28;20036;-70
2024/03/01 05:47:41;;;;;;;1.08;0.50;;;;;;;17.71;44.62;100190.09;5028650;28;20053;-70
2024/03/01 05:50:09;;;;;;;1.15;0.52;;;;;;;17.66;44.34;100181.78;5028829;28;20040;-70
2024/03/01 05:52:35;;;;;;;1.80;0.60;;;;;;;17.61;44.73;100184.00;5027511;28;20033;-71
2024/03/01 05:55:03;;;;;;;1.23;0.50;;;;;;;17.64;44.42;100188.13;5028027;28;20025;-70
2024/03/01 05:57:32;;;;;;;1.08;0.50;;;;;;;17.66;44.44;100194.94;5029217;28;20836;-70
2024/03/01 05:59:57;;;;;;;1.15;0.55;;;;;;;17.55;44.75;100176.63;5029265;28;20129;-70
2024/03/01 06:02:23;;;;;;;1.10;0.60;;;;;;;17.73;44.36;100211.03;5024154;28;20132;-70
2024/03/01 06:04:49;;;;;;;1.63;0.60;;;;;;;17.65;44.59;100197.72;5027001;28;20037;-70
2024/03/01 06:07:16;;;;;;;2.03;0.70;;;;;;;17.79;44.53;100220.22;5018912;28;20095;-69
2024/03/01 06:09:41;;;;;;;1.40;0.60;;;;;;;17.79;44.86;100217.56;5018493;28;20524;-70
2024/03/01 06:12:06;;;;;;;2.08;0.70;;;;;;;17.80;44.76;100217.44;5019164;28;20037;-70
2024/03/01 06:14:32;;;;;;;0.70;0.50;;;;;;;17.79;44.98;100214.94;5018544;28;20131;-70
2024/03/01 06:16:57;;;;;;;0.73;0.40;;;;;;;17.85;45.05;100225.75;5019427;28;20802;-70
2024/03/01 06:19:22;;;;;;;1.42;0.50;;;;;;;17.77;45.10;100215.06;5019987;28;20057;-70
2024/03/01 06:21:48;;;;;;;1.30;0.60;;;;;;;17.80;44.71;100217.44;5027897;28;20034;-70
2024/03/01 06:24:13;;;;;;;0.60;0.40;;;;;;;17.77;44.98;100209.81;5032805;28;20262;-70
2024/03/01 06:26:39;;;;;;;0.95;0.47;;;;;;;17.93;45.19;100233.84;5033088;28;20033;-70
2024/03/01 06:29:04;;;;;;;0.93;0.40;;;;;;;17.83;45.03;100218.94;5035683;28;20032;-70
2024/03/01 06:31:29;;;;;;;0.95;0.40;;;;;;;17.79;44.96;100209.66;5026280;28;20025;-70
2024/03/01 06:33:55;;;;;;;0.68;0.40;;;;;;;17.88;44.82;100233.44;5022394;28;20079;-69
2024/03/01 06:36:20;;;;;;;0.90;0.50;;;;;;;18.04;45.04;100255.75;5032815;28;20087;-70
2024/03/01 06:38:46;;;;;;;0.70;0.45;;;;;;;18.07;45.07;100263.41;5042124;28;20800;-70
2024/03/01 06:41:11;;;;;;;1.50;0.50;;;;;;;18.08;44.98;100260.63;5041794;28;20485;-69
2024/03/01 06:43:37;;;;;;;1.85;0.60;;;;;;;18.07;44.76;100258.13;5032459;28;20029;-70
2024/03/01 06:46:07;;;;;;;2.00;0.50;;;;;;;18.07;44.82;100260.75;5022115;28;20394;-70
2024/03/01 06:48:33;;;;;;;1.08;0.40;;;;;;;18.13;44.78;100265.47;5026573;28;20114;-69
2024/03/01 06:50:58;;;;;;;1.13;0.50;;;;;;;18.01;44.75;100245.47;5039833;28;20028;-70
2024/03/01 06:53:24;;;;;;;1.40;0.60;;;;;;;18.16;44.66;100269.66;5033297;28;20040;-70
2024/03/01 06:55:50;;;;;;;2.05;0.70;;;;;;;18.16;44.55;100272.28;5036385;28;20040;-70
2024/03/01 06:58:15;;;;;;;1.17;0.50;;;;;;;18.07;44.85;100258.97;5026594;28;20033;-70
2024/03/01 07:00:46;;;;;;;1.65;0.55;;;;;;;18.16;44.84;100269.66;5031611;28;20152;-70
2024/03/01 07:03:15;;;;;;;1.63;0.60;;;;;;;18.16;44.70;100267.03;5029934;28;20084;-70
2024/03/01 07:05:40;;;;;;;1.33;0.60;;;;;;;18.13;44.30;100262.84;5027550;28;20042;-70
2024/03/01 07:08:07;;;;;;;1.38;0.60;;;;;;;18.19;44.80;100277.28;5034042;28;20097;-70
2024/03/01 07:10:32;;;;;;;1.67;0.60;;;;;;;18.06;44.69;100253.84;5032546;28;20064;-70
2024/03/01 07:12:58;;;;;;;1.10;0.50;;;;;;;18.21;44.71;100278.81;5032651;28;20033;-70
2024/03/01 07:15:23;;;;;;;1.35;0.50;;;;;;;18.12;44.68;100266.47;5022139;28;20563;-70
2024/03/01 07:17:48;;;;;;;1.15;0.50;;;;;;;18.11;44.55;100262.97;5030739;28;20076;-70
2024/03/01 07:20:14;;;;;;;1.30;0.60;;;;;;;18.16;44.62;100264.38;5026076;28;20144;-70
2024/03/01 07:22:39;;;;;;;0.98;0.60;;;;;;;18.16;44.63;100270.47;5029718;28;20386;-70
2024/03/01 07:25:05;;;;;;;2.70;0.70;;;;;;;18.04;44.52;100250.47;5039588;28;20418;-71
2024/03/01 07:27:34;;;;;;;1.38;0.60;;;;;;;18.08;44.51;100250.06;5031427;28;20061;-70
2024/03/01 07:29:59;;;;;;;1.45;0.50;;;;;;;18.18;44.44;100259.78;5025652;28;20037;-70
2024/03/01 07:32:25;;;;;;;2.05;0.80;;;;;;;18.17;44.45;100266.06;5032675;28;20044;-70
2024/03/01 07:34:50;;;;;;;2.10;0.70;;;;;;;18.12;44.78;100256.75;5021862;28;20049;-71
2024/03/01 07:37:15;;;;;;;1.27;0.60;;;;;;;18.17;44.44;100261.59;5021838;28;20735;-71
2024/03/01 07:39:40;;;;;;;1.35;0.52;;;;;;;18.08;44.34;100247.44;5020980;28;20140;-71
2024/03/01 07:42:06;;;;;;;1.77;0.60;;;;;;;18.09;44.44;100248.28;5023339;28;21214;-71
2024/03/01 07:44:33;;;;;;;1.02;0.60;;;;;;;18.05;44.14;100242.44;5026451;28;20119;-71
2024/03/01 07:46:59;;;;;;;1.23;0.60;;;;;;;18.17;44.32;100266.88;5030047;28;20340;-70
2024/03/01 07:49:25;;;;;;;2.67;0.70;;;;;;;18.19;44.30;100272.84;5022692;28;20513;-70
2024/03/01 07:51:53;;;;;;;3.22;0.73;;;;;;;18.20;44.38;100273.66;5030066;28;20462;-69
2024/03/01 07:54:19;;;;;;;1.50;0.60;;;;;;;18.09;44.32;100249.09;5028343;28;20799;-69
2024/03/01 07:56:44;;;;;;;1.50;0.63;;;;;;;18.08;44.36;100243.97;5040232;28;20029;-69
2024/03/01 07:59:09;;;;;;;1.60;0.77;;;;;;;18.16;44.38;100259.09;5038100;28;20438;-69
2024/03/01 08:01:42;;;;;;;1.73;0.70;;;;;;;18.17;44.13;100271.34;5033795;28;20590;-70
2024/03/01 08:04:07;;;;;;;2.88;0.82;;;;;;;17.97;44.15;100226.47;5023742;28;20562;-68
2024/03/01 08:06:32;;;;;;;2.28;0.88;;;;;;;18.19;43.96;100262.28;5022695;28;20132;-66
2024/03/01 08:08:58;;;;;;;1.40;0.60;;;;;;;18.10;43.74;100250.78;5033904;28;20345;-69
2024/03/01 08:11:39;;;;;;;2.65;0.80;;;;;;;18.19;43.93;100262.28;5033690;28;20124;-67
2024/03/01 08:14:08;;;;;;;1.98;0.60;;;;;;;18.17;43.86;100256.34;5022094;28;20468;-69
2024/03/01 08:16:33;;;;;;;2.38;0.80;;;;;;;18.08;44.09;100236.88;5026876;28;20036;-67
2024/03/01 08:18:59;;;;;;;2.05;0.82;;;;;;;18.19;43.92;100264.94;5026503;28;20915;-69
2024/03/01 08:21:25;;;;;;;1.50;0.65;;;;;;;18.12;44.21;100248.84;5022460;28;20411;-69
2024/03/01 08:23:51;;;;;;;1.25;0.73;;;;;;;18.08;44.43;100241.34;5032770;28;20034;-69
2024/03/01 08:26:22;;;;;;;3.67;0.90;;;;;;;18.02;44.40;100232.16;5033511;28;20040;-70
2024/03/01 08:28:48;;;;;;;2.35;0.90;;;;;;;18.10;44.29;100239.38;5031736;28;20087;-69
2024/03/01 08:31:26;;;;;;;2.45;0.85;;;;;;;18.23;44.37;100268.97;5032704;28;20033;-67
2024/03/01 08:34:06;;;;;;;1.60;0.75;;;;;;;18.11;44.34;100254.25;5023868;28;20030;-67
2024/03/01 08:36:31;;;;;;;3.42;1.00;;;;;;;18.04;44.34;100234.66;5020615;28;20029;-69
2024/03/01 08:39:18;;;;;;;2.97;1.02;;;;;;;18.25;44.64;100268.81;5020413;28;20051;-70
2024/03/01 08:41:48;;;;;;;1.30;0.70;;;;;;;18.25;44.74;100258.28;5019586;28;20060;-70
2024/03/01 08:44:38;;;;;;;1.60;0.80;;;;;;;18.26;44.74;100262.56;5031126;28;20029;-69
2024/03/01 08:47:04;;;;;;;2.13;0.80;;;;;;;18.24;44.83;100267.16;5040119;28;20053;-69
2024/03/01 08:49:44;;;;;;;1.33;0.70;;;;;;;18.28;45.09;100268.56;5035816;28;20079;-69
2024/03/01 08:52:31;;;;;;;2.45;0.90;;;;;;;18.24;45.16;100269.78;5030839;28;20561;-69
2024/03/01 08:55:20;;;;;;;1.75;0.88;;;;;;;18.25;45.24;100279.38;5027460;28;20429;-70
2024/03/01 08:57:47;;;;;;;2.17;0.90;;;;;;;18.20;45.44;100263.13;5028566;28;20052;-68
2024/03/01 09:00:37;;;;;;;1.58;0.77;;;;;;;18.31;45.47;100281.47;5028210;28;20187;-69
2024/03/01 09:03:04;;;;;;;2.38;0.88;;;;;;;18.25;45.13;100268.81;5025648;28;20041;-69
2024/03/01 09:05:30;;;;;;;1.85;0.80;;;;;;;18.18;45.47;100252.69;5031935;28;20044;-69
2024/03/01 09:07:57;;;;;;;1.38;0.70;;;;;;;18.27;45.38;100261.59;5030967;28;20379;-71
2024/03/01 09:10:35;;;;;;;2.10;0.80;;;;;;;18.31;45.35;100261.19;5028968;28;20043;-69
2024/03/01 09:13:03;;;;;;;2.85;1.02;;;;;;;18.17;45.56;100250.22;5028338;28;20033;-70
2024/03/01 09:15:36;;;;;;;3.45;1.23;;;;;;;18.31;45.16;100274.38;5028468;28;20034;-71
2024/03/01 09:18:02;;;;;;;1.63;0.70;;;;;;;18.28;45.14;100268.56;5031559;28;20521;-70
2024/03/01 09:20:34;;;;;;;3.35;0.98;;;;;;;18.28;45.22;100274.66;5028597;28;20032;-70
2024/03/01 09:23:00;;;;;;;2.78;0.90;;;;;;;18.30;45.31;100274.50;5029860;28;20021;-70
2024/03/01 09:25:40;;;;;;;2.90;0.90;;;;;;;18.34;45.40;100277.69;5029905;28;20090;-70
2024/03/01 09:28:07;;;;;;;2.92;0.77;;;;;;;18.21;45.48;100256.88;5027667;28;20082;-70
2024/03/01 09:30:33;;;;;;;2.90;0.88;;;;;;;18.37;45.50;100280.06;5030213;28;20048;-70
2024/03/01 09:32:58;;;;;;;2.80;0.80;;;;;;;18.37;45.25;100274.78;5026085;28;20799;-69
2024/03/01 09:35:25;;;;;;;2.38;0.70;;;;;;;18.23;45.43;100249.66;5030276;28;20056;-70
2024/03/01 09:37:53;;;;;;;1.55;0.80;;;;;;;18.32;45.64;100267.28;5033305;28;20475;-69
2024/03/01 09:40:57;;;;;;;2.40;0.77;;;;;;;18.36;45.19;100273.09;5033457;28;20585;-69
2024/03/01 09:43:50;;;;;;;1.10;0.68;;;;;;;18.36;45.40;100266.03;5028653;28;20560;-69
2024/03/01 09:46:35;;;;;;;1.80;0.70;;;;;;;18.36;45.23;100267.81;5032691;28;20950;-69
2024/03/01 09:49:24;;;;;;;2.97;0.70;;;;;;;18.35;45.38;100259.09;5023179;28;20045;-71
2024/03/01 09:51:52;;;;;;;2.97;0.70;;;;;;;18.37;45.24;100261.59;5019296;28;20033;-68
2024/03/01 09:54:28;;;;;;;3.17;0.60;;;;;;;18.33;45.27;100255.78;5018839;28;20029;-71
2024/03/01 09:57:22;;;;;;;1.70;0.73;;;;;;;18.25;45.24;100239.81;5018707;28;20283;-72
2024/03/01 09:59:56;;;;;;;1.55;0.60;;;;;;;18.36;45.19;100268.69;5018974;28;20029;-70
2024/03/01 10:02:43;;;;;;;;;;;;;;;18.37;45.06;100251.84;5035702;28;20024;-67
2024/03/01 10:05:19;;;;;;;2.55;0.88;;;;;;;18.27;44.84;100232.59;5044147;28;20309;-71
2024/03/01 10:08:18;;;;;;;2.13;0.73;;;;;;;18.34;44.96;100244.25;5027793;28;20128;-70
2024/03/01 10:10:54;;;;;;;1.15;0.63;;;;;;;18.37;45.12;100241.31;5030727;28;20029;-73
2024/03/01 10:13:54;;;;;;;2.78;0.80;;;;;;;18.37;44.94;100238.66;5027227;28;20037;-73
2024/03/01 10:16:29;;;;;;;4.43;0.85;;;;;;;18.30;44.76;100229.66;5030345;28;20033;-73
2024/03/01 10:19:15;;;;;;;3.38;0.90;;;;;;;18.36;44.58;100234.38;5026685;28;20057;-71
2024/03/01 10:22:00;;;;;;;2.60;0.60;;;;;;;18.40;44.82;100219.91;5027240;28;20043;-75
2024/03/01 10:24:38;;;;;;;3.97;0.80;;;;;;;18.42;44.94;100211.88;5026303;28;20479;-71
2024/03/01 10:27:36;;;;;;;3.50;0.82;;;;;;;18.43;44.82;100217.00;5026685;28;20771;-72
2024/03/01 10:30:16;;;;;;;3.00;0.70;;;;;;;18.45;44.68;100209.81;5028193;28;20539;-69
2024/03/01 10:33:20;;;;;;;1.85;0.80;;;;;;;18.45;44.96;100193.13;5024040;28;20749;-71
2024/03/01 10:36:10;;;;;;;1.70;0.73;;;;;;;18.30;44.75;100169.00;5008194;28;20037;-71
2024/03/01 10:38:52;;;;;;;3.17;0.90;;;;;;;18.32;44.52;100159.13;5026151;28;20502;-70
2024/03/01 10:41:29;;;;;;;2.63;0.90;;;;;;;18.43;44.31;100187.16;5032313;28;20524;-70
2024/03/01 10:44:11;;;;;;;1.98;0.70;;;;;;;18.44;44.57;100173.00;5028407;28;20109;-71
2024/03/01 10:46:43;;;;;;;2.38;0.70;;;;;;;18.28;44.66;100152.50;5029459;28;20781;-70
2024/03/01 10:49:14;;;;;;;3.28;0.88;;;;;;;18.30;44.59;100145.25;5028761;28;20419;-69
2024/03/01 10:51:51;;;;;;;3.65;0.73;;;;;;;18.25;44.81;100132.50;5030350;28;20029;-71
2024/03/01 10:54:20;;;;;;;2.10;0.75;;;;;;;18.30;44.75;100126.78;5028046;28;20075;-69
2024/03/01 10:56:50;;;;;;;1.48;0.60;;;;;;;18.25;44.46;100118.50;5030051;28;20029;-70
2024/03/01 10:59:23;;;;;;;3.25;1.20;;;;;;;18.34;44.17;100124.69;5026551;28;20111;-70
2024/03/01 11:01:53;;;;;;;1.27;0.50;;;;;;;18.36;44.46;100128.88;5025709;28;20459;-70
2024/03/01 11:04:34;;;;;;;1.58;0.65;;;;;;;18.41;44.42;100136.34;5025945;28;20029;-69
2024/03/01 11:07:08;;;;;;;1.67;0.70;;;;;;;18.40;44.27;100127.59;5028592;28;20104;-70
2024/03/01 11:09:50;;;;;;;3.15;0.88;;;;;;;18.27;44.40;100108.63;5032226;28;20040;-71
2024/03/01 11:12:23;;;;;;;4.05;0.70;;;;;;;18.24;44.58;100098.34;5032555;28;20040;-70
2024/03/01 11:14:58;;;;;;;4.28;1.23;;;;;;;18.35;44.43;100116.63;5035471;28;20509;-70
2024/03/01 11:17:25;;;;;;;3.17;0.70;;;;;;;18.36;44.47;100115.69;5029386;28;20047;-70
2024/03/01 11:19:55;;;;;;;2.22;0.68;;;;;;;18.33;44.62;100105.41;5034695;28;20409;-70
2024/03/01 11:22:24;;;;;;;2.17;0.73;;;;;;;18.29;44.33;100104.03;5031532;28;20666;-70
2024/03/01 11:25:04;;;;;;;3.67;1.00;;;;;;;18.36;44.16;100094.56;5030802;28;20041;-71
2024/03/01 11:27:33;;;;;;;3.47;0.70;;;;;;;18.25;44.21;100069.19;5031226;28;20037;-70
2024/03/01 11:30:04;;;;;;;1.55;0.63;;;;;;;18.19;44.16;100055.75;5030636;28;20034;-69
2024/03/01 11:32:34;;;;;;;2.50;0.52;;;;;;;18.24;44.40;100062.25;5027401;28;20111;-70
2024/03/01 11:35:06;;;;;;;4.88;0.80;;;;;;;18.31;44.53;100070.44;5026006;28;20482;-72